createdAt,value
2018-05-07T00:00:04.525Z,0.00
2018-05-07T00:01:04.621Z,0.00
2018-05-07T00:02:04.558Z,0.00
2018-05-07T00:03:04.592Z,0.00
2018-05-07T00:04:04.595Z,0.00
2018-05-07T00:05:04.624Z,0.00
2018-05-07T00:06:04.654Z,0.00
2018-05-07T00:07:04.650Z,0.00
2018-05-07T00:08:04.711Z,0.00
2018-05-07T00:09:04.715Z,0.00
2018-05-07T00:10:04.707Z,0.00
2018-05-07T00:11:04.725Z,0.00
2018-05-07T00:12:04.823Z,0.00
2018-05-07T00:13:04.795Z,0.00
2018-05-07T00:14:04.808Z,0.00
2018-05-07T00:15:04.811Z,0.00
2018-05-07T00:16:04.900Z,0.00
2018-05-07T00:17:04.841Z,0.00
2018-05-07T00:18:04.854Z,0.00
2018-05-07T00:19:04.914Z,0.00
2018-05-07T00:20:04.895Z,0.00
2018-05-07T00:21:04.932Z,0.00
2018-05-07T00:22:04.965Z,0.00
2018-05-07T00:23:04.957Z,0.00
2018-05-07T00:24:04.968Z,0.00
2018-05-07T00:25:04.988Z,0.00
2018-05-07T00:26:05.005Z,0.00
2018-05-07T00:27:05.154Z,0.00
2018-05-07T00:28:05.100Z,0.00
2018-05-07T00:29:05.073Z,0.00
2018-05-07T00:30:05.099Z,0.00
2018-05-07T00:31:05.100Z,0.00
2018-05-07T00:32:05.135Z,0.00
2018-05-07T00:33:05.248Z,0.00
2018-05-07T00:34:05.178Z,0.00
2018-05-07T00:35:05.171Z,0.00
2018-05-07T00:36:05.237Z,0.00
2018-05-07T00:37:05.206Z,0.00
2018-05-07T00:38:05.227Z,0.00
2018-05-07T00:39:05.242Z,0.00
2018-05-07T00:40:05.351Z,0.00
2018-05-07T00:41:05.284Z,0.00
2018-05-07T00:42:05.300Z,0.00
2018-05-07T00:43:05.443Z,0.00
2018-05-07T00:44:05.435Z,0.00
2018-05-07T00:45:05.354Z,0.00
2018-05-07T00:46:05.377Z,0.00
2018-05-07T00:47:05.530Z,0.00
2018-05-07T00:48:05.414Z,0.00
2018-05-07T00:49:05.427Z,0.00
2018-05-07T00:50:05.459Z,0.00
2018-05-07T00:51:05.459Z,0.00
2018-05-07T00:52:05.492Z,0.00
2018-05-07T00:53:05.498Z,0.00
2018-05-07T00:54:05.515Z,0.00
2018-05-07T00:55:05.579Z,0.00
2018-05-07T00:56:05.696Z,0.00
2018-05-07T00:57:05.568Z,0.00
2018-05-07T00:58:05.648Z,0.00
2018-05-07T00:59:05.617Z,0.00
2018-05-07T01:00:05.636Z,0.00
2018-05-07T01:01:05.654Z,0.00
2018-05-07T01:02:05.723Z,0.00
2018-05-07T01:03:05.691Z,0.00
2018-05-07T01:04:05.701Z,0.00
2018-05-07T01:05:05.765Z,0.00
2018-05-07T01:06:05.753Z,0.00
2018-05-07T01:07:05.813Z,0.00
2018-05-07T01:08:05.774Z,0.00
2018-05-07T01:09:05.786Z,0.00
2018-05-07T01:10:05.812Z,0.00
2018-05-07T01:11:05.825Z,0.00
2018-05-07T01:12:06.017Z,0.00
2018-05-07T01:13:05.861Z,0.00
2018-05-07T01:14:05.920Z,0.00
2018-05-07T01:15:05.958Z,0.00
2018-05-07T01:16:05.916Z,0.00
2018-05-07T01:17:05.957Z,0.00
2018-05-07T01:18:05.952Z,0.00
2018-05-07T01:19:05.989Z,0.00
2018-05-07T01:20:06.070Z,0.00
2018-05-07T01:21:06.007Z,0.00
2018-05-07T01:22:06.033Z,0.00
2018-05-07T01:23:06.046Z,0.00
2018-05-07T01:24:06.067Z,0.00
2018-05-07T01:25:06.148Z,0.00
2018-05-07T01:26:06.104Z,0.00
2018-05-07T01:27:06.117Z,0.00
2018-05-07T01:28:06.131Z,0.00
2018-05-07T01:29:06.195Z,0.00
2018-05-07T01:30:06.178Z,0.00
2018-05-07T01:31:06.201Z,0.00
2018-05-07T01:32:06.275Z,0.00
2018-05-07T01:33:06.236Z,0.00
2018-05-07T01:34:06.272Z,0.00
2018-05-07T01:35:06.260Z,0.00
2018-05-07T01:36:06.275Z,0.00
2018-05-07T01:37:06.295Z,0.00
2018-05-07T01:38:06.315Z,0.00
2018-05-07T01:39:06.409Z,0.00
2018-05-07T01:40:06.358Z,0.00
2018-05-07T01:41:06.409Z,0.00
2018-05-07T01:42:06.389Z,0.00
2018-05-07T01:43:06.404Z,0.00
2018-05-07T01:44:06.455Z,0.00
2018-05-07T01:45:06.440Z,0.00
2018-05-07T01:46:06.618Z,0.00
2018-05-07T01:47:06.485Z,0.00
2018-05-07T01:48:06.500Z,0.00
2018-05-07T01:49:06.621Z,0.00
2018-05-07T01:50:06.645Z,0.00
2018-05-07T01:51:06.661Z,0.00
2018-05-07T01:52:06.569Z,0.00
2018-05-07T01:53:06.638Z,0.00
2018-05-07T01:54:06.613Z,0.00
2018-05-07T01:55:06.622Z,0.00
2018-05-07T01:56:06.642Z,0.00
2018-05-07T01:57:06.655Z,0.00
2018-05-07T01:58:06.674Z,0.00
2018-05-07T01:59:06.713Z,0.00
2018-05-07T02:00:06.918Z,0.00
2018-05-07T02:01:06.799Z,0.00
2018-05-07T02:02:06.771Z,0.00
2018-05-07T02:03:06.786Z,0.00
2018-05-07T02:04:06.826Z,0.00
2018-05-07T02:05:06.817Z,0.00
2018-05-07T02:06:06.818Z,0.00
2018-05-07T02:07:06.842Z,0.00
2018-05-07T02:08:06.854Z,0.00
2018-05-07T02:09:06.873Z,0.00
2018-05-07T02:10:06.929Z,0.00
2018-05-07T02:11:06.926Z,0.00
2018-05-07T02:12:06.942Z,0.00
2018-05-07T02:13:06.947Z,0.00
2018-05-07T02:14:07.037Z,0.00
2018-05-07T02:15:06.979Z,0.00
2018-05-07T02:16:06.993Z,0.00
2018-05-07T02:17:07.013Z,0.00
2018-05-07T02:18:07.032Z,0.00
2018-05-07T02:19:07.054Z,0.00
2018-05-07T02:20:07.173Z,0.00
2018-05-07T02:21:07.086Z,0.00
2018-05-07T02:22:07.097Z,0.00
2018-05-07T02:23:07.116Z,0.00
2018-05-07T02:24:07.140Z,0.00
2018-05-07T02:25:07.155Z,0.00
2018-05-07T02:26:07.207Z,0.00
2018-05-07T02:27:07.196Z,0.00
2018-05-07T02:28:07.290Z,0.00
2018-05-07T02:29:07.316Z,0.00
2018-05-07T02:30:07.246Z,0.00
2018-05-07T02:31:07.265Z,0.00
2018-05-07T02:32:07.285Z,0.00
2018-05-07T02:33:07.295Z,0.00
2018-05-07T02:34:07.316Z,0.00
2018-05-07T02:35:07.409Z,0.00
2018-05-07T02:36:07.355Z,0.00
2018-05-07T02:37:07.401Z,0.00
2018-05-07T02:38:07.389Z,0.00
2018-05-07T02:39:07.482Z,0.00
2018-05-07T02:40:07.422Z,0.00
2018-05-07T02:41:07.454Z,0.00
2018-05-07T02:42:07.545Z,0.00
2018-05-07T02:43:07.471Z,0.00
2018-05-07T02:44:07.485Z,0.00
2018-05-07T02:45:07.519Z,0.00
2018-05-07T02:46:07.526Z,0.00
2018-05-07T02:47:07.552Z,0.00
2018-05-07T02:48:07.560Z,4.00
2018-05-07T02:49:07.574Z,4.00
2018-05-07T02:50:07.607Z,4.00
2018-05-07T02:51:07.793Z,4.00
2018-05-07T02:52:07.677Z,4.00
2018-05-07T02:53:07.701Z,4.00
2018-05-07T02:54:07.667Z,0.00
2018-05-07T02:55:07.683Z,0.00
2018-05-07T02:56:07.796Z,0.00
2018-05-07T02:57:07.714Z,4.00
2018-05-07T02:58:07.742Z,4.00
2018-05-07T02:59:07.756Z,4.00
2018-05-07T03:00:07.796Z,0.00
2018-05-07T03:01:07.783Z,4.00
2018-05-07T03:02:07.802Z,4.00
2018-05-07T03:03:07.875Z,4.00
2018-05-07T03:04:07.895Z,8.00
2018-05-07T03:05:07.857Z,4.00
2018-05-07T03:06:07.873Z,4.00
2018-05-07T03:07:07.915Z,12.00
2018-05-07T03:08:07.908Z,8.00
2018-05-07T03:09:07.925Z,12.00
2018-05-07T03:10:07.938Z,16.00
2018-05-07T03:11:07.969Z,16.00
2018-05-07T03:12:08.047Z,20.00
2018-05-07T03:13:08.008Z,16.00
2018-05-07T03:14:08.029Z,24.00
2018-05-07T03:15:08.026Z,24.00
2018-05-07T03:16:08.044Z,28.00
2018-05-07T03:17:08.067Z,36.00
2018-05-07T03:18:08.084Z,40.00
2018-05-07T03:19:08.268Z,44.00
2018-05-07T03:20:08.115Z,48.00
2018-05-07T03:21:08.132Z,56.00
2018-05-07T03:22:08.208Z,68.00
2018-05-07T03:23:08.272Z,76.00
2018-05-07T03:24:08.183Z,84.00
2018-05-07T03:25:08.331Z,96.00
2018-05-07T03:26:08.218Z,112.00
2018-05-07T03:27:08.235Z,128.00
2018-05-07T03:28:08.256Z,140.00
2018-05-07T03:29:08.273Z,156.00
2018-05-07T03:30:08.293Z,176.00
2018-05-07T03:31:08.311Z,196.00
2018-05-07T03:32:08.321Z,220.00
2018-05-07T03:33:08.344Z,244.00
2018-05-07T03:34:08.422Z,264.00
2018-05-07T03:35:08.395Z,292.00
2018-05-07T03:36:08.424Z,320.00
2018-05-07T03:37:08.438Z,352.00
2018-05-07T03:38:08.455Z,384.00
2018-05-07T03:39:08.448Z,420.00
2018-05-07T03:40:08.467Z,456.00
2018-05-07T03:41:08.494Z,492.00
2018-05-07T03:42:08.505Z,536.00
2018-05-07T03:43:08.514Z,576.00
2018-05-07T03:44:08.550Z,624.00
2018-05-07T03:45:08.549Z,668.00
2018-05-07T03:46:08.575Z,716.00
2018-05-07T03:47:08.610Z,768.00
2018-05-07T03:48:08.602Z,824.00
2018-05-07T03:49:08.644Z,876.00
2018-05-07T03:50:08.710Z,936.00
2018-05-07T03:51:08.655Z,992.00
2018-05-07T03:52:08.673Z,1052.00
2018-05-07T03:53:08.698Z,1112.00
2018-05-07T03:54:08.732Z,1176.00
2018-05-07T03:55:08.728Z,1240.00
2018-05-07T03:56:08.742Z,1304.00
2018-05-07T03:57:08.759Z,1372.00
2018-05-07T03:58:08.872Z,1436.00
2018-05-07T03:59:08.793Z,1508.00
2018-05-07T04:00:08.813Z,1580.00
2018-05-07T04:01:08.894Z,1648.00
2018-05-07T04:02:08.846Z,1720.00
2018-05-07T04:03:08.956Z,1792.00
2018-05-07T04:04:08.947Z,1864.00
2018-05-07T04:05:08.902Z,1940.00
2018-05-07T04:06:08.915Z,2012.00
2018-05-07T04:07:08.944Z,2088.00
2018-05-07T04:08:09.000Z,2160.00
2018-05-07T04:09:09.044Z,2232.00
2018-05-07T04:10:08.980Z,2304.00
2018-05-07T04:11:09.002Z,2380.00
2018-05-07T04:12:09.100Z,2448.00
2018-05-07T04:13:09.084Z,2520.00
2018-05-07T04:14:09.055Z,2596.00
2018-05-07T04:15:09.084Z,2672.00
2018-05-07T04:16:09.092Z,2740.00
2018-05-07T04:17:09.104Z,2816.00
2018-05-07T04:18:09.122Z,2892.00
2018-05-07T04:19:09.144Z,2964.00
2018-05-07T04:20:09.189Z,3036.00
2018-05-07T04:21:09.184Z,3112.00
2018-05-07T04:22:09.196Z,3184.00
2018-05-07T04:23:09.219Z,3260.00
2018-05-07T04:24:09.226Z,3332.00
2018-05-07T04:25:09.246Z,3404.00
2018-05-07T04:26:09.316Z,3476.00
2018-05-07T04:27:09.293Z,3548.00
2018-05-07T04:28:09.295Z,3620.00
2018-05-07T04:29:09.371Z,3696.00
2018-05-07T04:30:09.349Z,3768.00
2018-05-07T04:31:09.411Z,3844.00
2018-05-07T04:32:09.370Z,3924.00
2018-05-07T04:33:09.501Z,4024.00
2018-05-07T04:34:09.401Z,4152.00
2018-05-07T04:35:09.419Z,4276.00
2018-05-07T04:36:09.528Z,4368.00
2018-05-07T04:37:09.452Z,4448.00
2018-05-07T04:38:09.473Z,4532.00
2018-05-07T04:39:09.537Z,4636.00
2018-05-07T04:40:09.617Z,4724.00
2018-05-07T04:41:09.605Z,4796.00
2018-05-07T04:42:09.541Z,4848.00
2018-05-07T04:43:09.638Z,4920.00
2018-05-07T04:44:09.577Z,5024.00
2018-05-07T04:45:09.637Z,5156.00
2018-05-07T04:46:09.745Z,5372.00
2018-05-07T04:47:09.656Z,5664.00
2018-05-07T04:48:09.647Z,6004.00
2018-05-07T04:49:09.662Z,6476.00
2018-05-07T04:50:09.684Z,13368.00
2018-05-07T04:51:09.718Z,33312.00
2018-05-07T04:52:09.728Z,41312.00
2018-05-07T04:53:09.739Z,40992.00
2018-05-07T04:54:09.808Z,38496.00
2018-05-07T04:55:09.835Z,36192.00
2018-05-07T04:56:09.799Z,34464.00
2018-05-07T04:57:09.809Z,31808.00
2018-05-07T04:58:09.830Z,30528.00
2018-05-07T04:59:09.937Z,30016.00
2018-05-07T05:00:09.920Z,28192.00
2018-05-07T05:01:09.890Z,25056.00
2018-05-07T05:02:09.908Z,25792.00
2018-05-07T05:03:09.936Z,27936.00
2018-05-07T05:04:09.966Z,31872.00
2018-05-07T05:05:09.976Z,35040.00
2018-05-07T05:06:10.035Z,39712.00
2018-05-07T05:07:10.047Z,42880.00
2018-05-07T05:08:10.042Z,44992.00
2018-05-07T05:09:10.124Z,45440.00
2018-05-07T05:10:10.092Z,45312.00
2018-05-07T05:11:10.115Z,45856.00
2018-05-07T05:12:10.145Z,45728.00
2018-05-07T05:13:10.166Z,45952.00
2018-05-07T05:14:10.200Z,46080.00
2018-05-07T05:15:10.297Z,46688.00
2018-05-07T05:16:10.234Z,47744.00
2018-05-07T05:17:10.258Z,48992.00
2018-05-07T05:18:10.285Z,48320.00
2018-05-07T05:19:10.391Z,48480.00
2018-05-07T05:20:10.327Z,47456.00
2018-05-07T05:21:10.390Z,47264.00
2018-05-07T05:22:10.380Z,45984.00
2018-05-07T05:23:10.403Z,46656.00
2018-05-07T05:24:10.436Z,46816.00
2018-05-07T05:25:10.464Z,47488.00
2018-05-07T05:26:10.510Z,46560.00
2018-05-07T05:27:10.515Z,46176.00
2018-05-07T05:28:10.532Z,45472.00
2018-05-07T05:29:10.565Z,44480.00
2018-05-07T05:30:10.609Z,43872.00
2018-05-07T05:31:10.620Z,43680.00
2018-05-07T05:32:10.650Z,43712.00
2018-05-07T05:33:10.746Z,42976.00
2018-05-07T05:34:10.693Z,42400.00
2018-05-07T05:35:10.775Z,41344.00
2018-05-07T05:36:10.775Z,40736.00
2018-05-07T05:37:10.865Z,40064.00
2018-05-07T05:38:10.794Z,39008.00
2018-05-07T05:39:10.825Z,37440.00
2018-05-07T05:40:10.847Z,37056.00
2018-05-07T05:41:10.879Z,36608.00
2018-05-07T05:42:11.020Z,36064.00
2018-05-07T05:43:10.930Z,35232.00
2018-05-07T05:44:10.987Z,33792.00
2018-05-07T05:45:10.987Z,32384.00
2018-05-07T05:46:11.123Z,31104.00
2018-05-07T05:47:11.063Z,30592.00
2018-05-07T05:48:11.068Z,30432.00
2018-05-07T05:49:11.129Z,30144.00
2018-05-07T05:50:11.158Z,29376.00
2018-05-07T05:51:11.156Z,28096.00
2018-05-07T05:52:11.178Z,27264.00
2018-05-07T05:53:11.293Z,27456.00
2018-05-07T05:54:11.237Z,27744.00
2018-05-07T05:55:11.267Z,28544.00
2018-05-07T05:56:11.400Z,29376.00
2018-05-07T05:57:11.369Z,33408.00
2018-05-07T05:58:11.357Z,59520.00
2018-05-07T05:59:11.403Z,94336.00
2018-05-07T06:00:11.411Z,120160.00
2018-05-07T06:01:11.436Z,123136.00
2018-05-07T06:02:11.461Z,114496.00
2018-05-07T06:03:11.501Z,106464.00
2018-05-07T06:04:11.528Z,92864.00
2018-05-07T06:05:11.548Z,95520.00
2018-05-07T06:06:11.579Z,103360.00
2018-05-07T06:07:11.605Z,109664.00
2018-05-07T06:08:11.646Z,108320.00
2018-05-07T06:09:11.755Z,94464.00
2018-05-07T06:10:11.738Z,86528.00
2018-05-07T06:11:11.729Z,83776.00
2018-05-07T06:12:11.752Z,80928.00
2018-05-07T06:13:11.777Z,78240.00
2018-05-07T06:14:11.808Z,77088.00
2018-05-07T06:15:11.855Z,75744.00
2018-05-07T06:16:11.874Z,77536.00
2018-05-07T06:17:11.915Z,85760.00
2018-05-07T06:18:11.929Z,94144.00
2018-05-07T06:19:12.027Z,92928.00
2018-05-07T06:20:12.051Z,85440.00
2018-05-07T06:21:12.027Z,78880.00
2018-05-07T06:22:12.051Z,79008.00
2018-05-07T06:23:12.084Z,78272.00
2018-05-07T06:24:12.104Z,76096.00
2018-05-07T06:25:12.133Z,78848.00
2018-05-07T06:26:12.166Z,82624.00
2018-05-07T06:27:12.204Z,85984.00
2018-05-07T06:28:12.218Z,87136.00
2018-05-07T06:29:12.255Z,88256.00
2018-05-07T06:30:12.285Z,92480.00
2018-05-07T06:31:12.403Z,93216.00
2018-05-07T06:32:12.452Z,90208.00
2018-05-07T06:33:12.478Z,88704.00
2018-05-07T06:34:12.401Z,90976.00
2018-05-07T06:35:12.435Z,92928.00
2018-05-07T06:36:12.485Z,86816.00
2018-05-07T06:37:12.533Z,82176.00
2018-05-07T06:38:12.520Z,83136.00
2018-05-07T06:39:12.640Z,85088.00
2018-05-07T06:40:12.632Z,85536.00
2018-05-07T06:41:12.623Z,86240.00
2018-05-07T06:42:12.686Z,85760.00
2018-05-07T06:43:12.791Z,85568.00
2018-05-07T06:44:12.765Z,83392.00
2018-05-07T06:45:12.741Z,82848.00
2018-05-07T06:46:12.762Z,83808.00
2018-05-07T06:47:12.891Z,86144.00
2018-05-07T06:48:12.824Z,88192.00
2018-05-07T06:49:12.892Z,88224.00
2018-05-07T06:50:12.887Z,89152.00
2018-05-07T06:51:12.963Z,90112.00
2018-05-07T06:52:13.007Z,92256.00
2018-05-07T06:53:12.982Z,93856.00
2018-05-07T06:54:13.019Z,94304.00
2018-05-07T06:55:13.040Z,93280.00
2018-05-07T06:56:13.078Z,92640.00
2018-05-07T06:57:13.153Z,93024.00
2018-05-07T06:58:13.134Z,95456.00
2018-05-07T06:59:13.161Z,95904.00
2018-05-07T07:00:13.261Z,89120.00
2018-05-07T07:01:13.259Z,81856.00
2018-05-07T07:02:13.269Z,78016.00
2018-05-07T07:03:13.291Z,76864.00
2018-05-07T07:04:13.319Z,77184.00
2018-05-07T07:05:13.389Z,77856.00
2018-05-07T07:06:13.419Z,78848.00
2018-05-07T07:07:13.410Z,75680.00
2018-05-07T07:08:13.543Z,70368.00
2018-05-07T07:09:13.471Z,68864.00
2018-05-07T07:10:13.504Z,69024.00
2018-05-07T07:11:13.612Z,72192.00
2018-05-07T07:12:13.579Z,74560.00
2018-05-07T07:13:13.667Z,77728.00
2018-05-07T07:14:13.633Z,80192.00
2018-05-07T07:15:13.658Z,79488.00
2018-05-07T07:16:13.693Z,79840.00
2018-05-07T07:17:13.776Z,79840.00
2018-05-07T07:18:13.751Z,80352.00
2018-05-07T07:19:13.798Z,79200.00
2018-05-07T07:20:13.813Z,81280.00
2018-05-07T07:21:13.894Z,77536.00
2018-05-07T07:22:13.882Z,75392.00
2018-05-07T07:23:13.963Z,75232.00
2018-05-07T07:24:13.945Z,73984.00
2018-05-07T07:25:14.085Z,72064.00
2018-05-07T07:26:14.039Z,68224.00
2018-05-07T07:27:14.032Z,67872.00
2018-05-07T07:28:14.072Z,69376.00
2018-05-07T07:29:14.092Z,70272.00
2018-05-07T07:30:14.122Z,72256.00
2018-05-07T07:31:14.225Z,72992.00
2018-05-07T07:32:14.176Z,72896.00
2018-05-07T07:33:14.245Z,76416.00
2018-05-07T07:34:14.236Z,79040.00
2018-05-07T07:35:14.368Z,79968.00
2018-05-07T07:36:14.352Z,77824.00
2018-05-07T07:37:14.338Z,71648.00
2018-05-07T07:38:14.372Z,69568.00
2018-05-07T07:39:14.430Z,70048.00
2018-05-07T07:40:14.408Z,70624.00
2018-05-07T07:41:14.452Z,73824.00
2018-05-07T07:42:14.498Z,73312.00
2018-05-07T07:43:14.565Z,68160.00
2018-05-07T07:44:14.540Z,67968.00
2018-05-07T07:45:14.553Z,67840.00
2018-05-07T07:46:14.589Z,70368.00
2018-05-07T07:47:14.628Z,77024.00
2018-05-07T07:48:14.653Z,79680.00
2018-05-07T07:49:14.688Z,81152.00
2018-05-07T07:50:14.756Z,79808.00
2018-05-07T07:51:14.808Z,81600.00
2018-05-07T07:52:14.763Z,81888.00
2018-05-07T07:53:14.785Z,79648.00
2018-05-07T07:54:14.822Z,81504.00
2018-05-07T07:55:14.849Z,80768.00
2018-05-07T07:56:14.879Z,79648.00
2018-05-07T07:57:14.910Z,77056.00
2018-05-07T07:58:14.999Z,78656.00
2018-05-07T07:59:14.964Z,81248.00
2018-05-07T08:00:14.999Z,79264.00
2018-05-07T08:01:15.040Z,78016.00
2018-05-07T08:02:15.052Z,77696.00
2018-05-07T08:03:15.177Z,76192.00
2018-05-07T08:04:15.187Z,75392.00
2018-05-07T08:05:15.144Z,76608.00
2018-05-07T08:06:15.178Z,76864.00
2018-05-07T08:07:15.223Z,74784.00
2018-05-07T08:08:15.243Z,75744.00
2018-05-07T08:09:15.268Z,73952.00
2018-05-07T08:10:15.297Z,74240.00
2018-05-07T08:11:15.326Z,75424.00
2018-05-07T08:12:15.426Z,76000.00
2018-05-07T08:13:15.387Z,72480.00
2018-05-07T08:14:15.432Z,73248.00
2018-05-07T08:15:15.444Z,74304.00
2018-05-07T08:16:15.472Z,74304.00
2018-05-07T08:17:15.504Z,77344.00
2018-05-07T08:18:15.535Z,76448.00
2018-05-07T08:19:15.562Z,76960.00
2018-05-07T08:20:15.642Z,76128.00
2018-05-07T08:21:15.621Z,75104.00
2018-05-07T08:22:15.757Z,75392.00
2018-05-07T08:23:15.791Z,74432.00
2018-05-07T08:24:15.708Z,73600.00
2018-05-07T08:25:15.742Z,71840.00
2018-05-07T08:26:15.767Z,67296.00
2018-05-07T08:27:15.794Z,31424.00
2018-05-07T08:28:15.829Z,9080.00
2018-05-07T08:29:15.890Z,8236.00
2018-05-07T08:30:15.879Z,7940.00
2018-05-07T08:31:15.929Z,7856.00
2018-05-07T08:32:15.935Z,7816.00
2018-05-07T08:33:15.957Z,7800.00
2018-05-07T08:34:16.113Z,7776.00
2018-05-07T08:35:16.031Z,7756.00
2018-05-07T08:36:16.033Z,7736.00
2018-05-07T08:37:16.063Z,7708.00
2018-05-07T08:38:16.091Z,7696.00
2018-05-07T08:39:16.120Z,7672.00
2018-05-07T08:40:16.144Z,7636.00
2018-05-07T08:41:16.173Z,7584.00
2018-05-07T08:42:16.223Z,7540.00
2018-05-07T08:43:16.254Z,7520.00
2018-05-07T08:44:16.245Z,7496.00
2018-05-07T08:45:16.307Z,7476.00
2018-05-07T08:46:16.293Z,7444.00
2018-05-07T08:47:16.333Z,7416.00
2018-05-07T08:48:16.347Z,7384.00
2018-05-07T08:49:16.384Z,7356.00
2018-05-07T08:50:16.475Z,7328.00
2018-05-07T08:51:16.507Z,7320.00
2018-05-07T08:52:16.458Z,7304.00
2018-05-07T08:53:16.557Z,7292.00
2018-05-07T08:54:16.493Z,7276.00
2018-05-07T08:55:16.526Z,7268.00
2018-05-07T08:56:16.545Z,7256.00
2018-05-07T08:57:16.577Z,7244.00
2018-05-07T08:58:16.598Z,7228.00
2018-05-07T08:59:16.625Z,7196.00
2018-05-07T09:00:16.663Z,7172.00
2018-05-07T09:01:16.667Z,7152.00
2018-05-07T09:02:16.944Z,7140.00
2018-05-07T09:03:16.716Z,7124.00
2018-05-07T09:04:16.748Z,7104.00
2018-05-07T09:05:16.771Z,7092.00
2018-05-07T09:06:16.808Z,7080.00
2018-05-07T09:07:16.853Z,7064.00
2018-05-07T09:08:16.868Z,7048.00
2018-05-07T09:09:17.006Z,7036.00
2018-05-07T09:10:16.894Z,7020.00
2018-05-07T09:11:16.955Z,7012.00
2018-05-07T09:12:17.019Z,6996.00
2018-05-07T09:13:16.986Z,6984.00
2018-05-07T09:14:16.998Z,6964.00
2018-05-07T09:15:17.026Z,6960.00
2018-05-07T09:16:17.038Z,6940.00
2018-05-07T09:17:17.060Z,6940.00
2018-05-07T09:18:17.087Z,6940.00
2018-05-07T09:19:17.109Z,6932.00
2018-05-07T09:20:17.128Z,6932.00
2018-05-07T09:21:17.159Z,6920.00
2018-05-07T09:22:17.183Z,6900.00
2018-05-07T09:23:17.201Z,6888.00
2018-05-07T09:24:17.265Z,6872.00
2018-05-07T09:25:17.260Z,6864.00
2018-05-07T09:26:17.278Z,6852.00
2018-05-07T09:27:17.410Z,6840.00
2018-05-07T09:28:17.331Z,6832.00
2018-05-07T09:29:17.354Z,6820.00
2018-05-07T09:30:17.374Z,6812.00
2018-05-07T09:31:17.401Z,6800.00
2018-05-07T09:32:17.446Z,6792.00
2018-05-07T09:33:17.452Z,6772.00
2018-05-07T09:34:17.471Z,6752.00
2018-05-07T09:35:17.492Z,6744.00
2018-05-07T09:36:17.532Z,6712.00
2018-05-07T09:37:17.598Z,6688.00
2018-05-07T09:38:17.725Z,6684.00
2018-05-07T09:39:17.692Z,6680.00
2018-05-07T09:40:17.678Z,6676.00
2018-05-07T09:41:17.638Z,6664.00
2018-05-07T09:42:17.704Z,6656.00
2018-05-07T09:43:17.816Z,6648.00
2018-05-07T09:44:17.710Z,6648.00
2018-05-07T09:45:17.729Z,6636.00
2018-05-07T09:46:17.754Z,6624.00
2018-05-07T09:47:17.791Z,6616.00
2018-05-07T09:48:17.928Z,6600.00
2018-05-07T09:49:17.840Z,6588.00
2018-05-07T09:50:17.851Z,6580.00
2018-05-07T09:51:17.894Z,6572.00
2018-05-07T09:52:17.897Z,6556.00
2018-05-07T09:53:17.963Z,6544.00
2018-05-07T09:54:17.971Z,6532.00
2018-05-07T09:55:17.978Z,6524.00
2018-05-07T09:56:18.011Z,6528.00
2018-05-07T09:57:18.019Z,6524.00
2018-05-07T09:58:18.095Z,6524.00
2018-05-07T09:59:18.067Z,6520.00
2018-05-07T10:00:18.097Z,6512.00
2018-05-07T10:01:18.119Z,6500.00
2018-05-07T10:02:18.141Z,6492.00
2018-05-07T10:03:18.180Z,6484.00
2018-05-07T10:04:18.187Z,6476.00
2018-05-07T10:05:18.212Z,6468.00
2018-05-07T10:06:18.236Z,6464.00
2018-05-07T10:07:18.259Z,6456.00
2018-05-07T10:08:18.291Z,6452.00
2018-05-07T10:09:18.312Z,6444.00
2018-05-07T10:10:18.342Z,6440.00
2018-05-07T10:11:18.359Z,6432.00
2018-05-07T10:12:18.376Z,6440.00
2018-05-07T10:13:18.410Z,6436.00
2018-05-07T10:14:18.544Z,6424.00
2018-05-07T10:15:18.461Z,6416.00
2018-05-07T10:16:18.534Z,6412.00
2018-05-07T10:17:18.521Z,6408.00
2018-05-07T10:18:18.626Z,6416.00
2018-05-07T10:19:18.555Z,6420.00
2018-05-07T10:20:18.677Z,6420.00
2018-05-07T10:21:18.604Z,6448.00
2018-05-07T10:22:18.632Z,6416.00
2018-05-07T10:23:18.652Z,6412.00
2018-05-07T10:24:18.761Z,6408.00
2018-05-07T10:25:18.702Z,6404.00
2018-05-07T10:26:18.717Z,6396.00
2018-05-07T10:27:18.766Z,6380.00
2018-05-07T10:28:18.768Z,6376.00
2018-05-07T10:29:18.800Z,6364.00
2018-05-07T10:30:18.873Z,6352.00
2018-05-07T10:31:18.843Z,6348.00
2018-05-07T10:32:18.891Z,6336.00
2018-05-07T10:33:18.948Z,6340.00
2018-05-07T10:34:18.938Z,6332.00
2018-05-07T10:35:19.031Z,6328.00
2018-05-07T10:36:18.994Z,6320.00
2018-05-07T10:37:18.991Z,6308.00
2018-05-07T10:38:19.080Z,6308.00
2018-05-07T10:39:19.082Z,6300.00
2018-05-07T10:40:19.057Z,6292.00
2018-05-07T10:41:19.085Z,6292.00
2018-05-07T10:42:19.117Z,6288.00
2018-05-07T10:43:19.140Z,6276.00
2018-05-07T10:44:19.157Z,6268.00
2018-05-07T10:45:19.188Z,6264.00
2018-05-07T10:46:19.222Z,6252.00
2018-05-07T10:47:19.258Z,6228.00
2018-05-07T10:48:19.260Z,6228.00
2018-05-07T10:49:19.290Z,6228.00
2018-05-07T10:50:19.312Z,6232.00
2018-05-07T10:51:19.331Z,6224.00
2018-05-07T10:52:19.362Z,6208.00
2018-05-07T10:53:19.388Z,6200.00
2018-05-07T10:54:19.492Z,6200.00
2018-05-07T10:55:19.436Z,6192.00
2018-05-07T10:56:19.451Z,6176.00
2018-05-07T10:57:19.478Z,6172.00
2018-05-07T10:58:19.502Z,6156.00
2018-05-07T10:59:19.531Z,6144.00
2018-05-07T11:00:19.549Z,6132.00
2018-05-07T11:01:19.680Z,6132.00
2018-05-07T11:02:19.602Z,6124.00
2018-05-07T11:03:19.629Z,6112.00
2018-05-07T11:04:19.649Z,6112.00
2018-05-07T11:05:19.682Z,6100.00
2018-05-07T11:06:19.750Z,6096.00
2018-05-07T11:07:19.810Z,6076.00
2018-05-07T11:08:19.749Z,6072.00
2018-05-07T11:09:19.773Z,6072.00
2018-05-07T11:10:19.802Z,6068.00
2018-05-07T11:11:19.819Z,6060.00
2018-05-07T11:12:19.843Z,6064.00
2018-05-07T11:13:19.955Z,6060.00
2018-05-07T11:14:19.903Z,6052.00
2018-05-07T11:15:19.921Z,6052.00
2018-05-07T11:16:19.946Z,6056.00
2018-05-07T11:17:20.018Z,6048.00
2018-05-07T11:18:20.040Z,6072.00
2018-05-07T11:19:20.021Z,6076.00
2018-05-07T11:20:20.042Z,6072.00
2018-05-07T11:21:20.067Z,6072.00
2018-05-07T11:22:20.189Z,6076.00
2018-05-07T11:23:20.116Z,6076.00
2018-05-07T11:24:20.182Z,6072.00
2018-05-07T11:25:20.292Z,6068.00
2018-05-07T11:26:20.190Z,6060.00
2018-05-07T11:27:20.218Z,6060.00
2018-05-07T11:28:20.238Z,6056.00
2018-05-07T11:29:20.261Z,6060.00
2018-05-07T11:30:20.280Z,6052.00
2018-05-07T11:31:20.335Z,6052.00
2018-05-07T11:32:20.463Z,6048.00
2018-05-07T11:33:20.360Z,6044.00
2018-05-07T11:34:20.381Z,6048.00
2018-05-07T11:35:20.402Z,6044.00
2018-05-07T11:36:20.500Z,6044.00
2018-05-07T11:37:20.458Z,6032.00
2018-05-07T11:38:20.485Z,6024.00
2018-05-07T11:39:20.504Z,6032.00
2018-05-07T11:40:20.526Z,6032.00
2018-05-07T11:41:20.574Z,6048.00
2018-05-07T11:42:20.707Z,6064.00
2018-05-07T11:43:20.600Z,6072.00
2018-05-07T11:44:20.632Z,6072.00
2018-05-07T11:45:20.646Z,6072.00
2018-05-07T11:46:20.727Z,6080.00
2018-05-07T11:47:20.806Z,6088.00
2018-05-07T11:48:20.720Z,6092.00
2018-05-07T11:49:20.900Z,6100.00
2018-05-07T11:50:20.765Z,6112.00
2018-05-07T11:51:20.857Z,6124.00
2018-05-07T11:52:20.813Z,6128.00
2018-05-07T11:53:20.888Z,6120.00
2018-05-07T11:54:20.915Z,6116.00
2018-05-07T11:55:20.885Z,6100.00
2018-05-07T11:56:20.912Z,6100.00
2018-05-07T11:57:20.987Z,6104.00
2018-05-07T11:58:20.962Z,6112.00
2018-05-07T11:59:21.009Z,6112.00
2018-05-07T12:00:21.005Z,6116.00
2018-05-07T12:01:21.033Z,6112.00
2018-05-07T12:02:21.116Z,6124.00
2018-05-07T12:03:21.079Z,6128.00
2018-05-07T12:04:21.123Z,6060.00
2018-05-07T12:05:21.169Z,6060.00
2018-05-07T12:06:21.158Z,6040.00
2018-05-07T12:07:21.393Z,6020.00
2018-05-07T12:08:21.208Z,6004.00
2018-05-07T12:09:21.222Z,5996.00
2018-05-07T12:10:21.261Z,5992.00
2018-05-07T12:11:21.269Z,5984.00
2018-05-07T12:12:21.299Z,6012.00
2018-05-07T12:13:21.439Z,6012.00
2018-05-07T12:14:21.421Z,6008.00
2018-05-07T12:15:21.457Z,6000.00
2018-05-07T12:16:21.402Z,6016.00
2018-05-07T12:17:21.431Z,6016.00